Time;durP1;ratioP1;P1;durP2;ratioP2;P2;SDS_P1;SDS_P2;PMS_P1;PMS_P2;Temp;Humidity;BMP_temperature;BMP_pressure;BME280_temperature;BME280_humidity;BME280_pressure;Samples;Min_cycle;Max_cycle;Signal;HPM_P1;HPM_P2
2023/03/04 00:05:53;;;;;;;;;;;;;;;;;;6256146;22;20242;-86
2023/03/04 00:08:33;;;;;;;;;;;;;;;;;;6178173;23;20026;-86
2023/03/04 00:11:12;;;;;;;;;;;;;;;;;;;;;
2023/03/04 00:13:59;;;;;;;;;;;;;;;;;;6181793;23;19920;-86
2023/03/04 00:17:19;;;;;;;;;;;;;;;;;;6096202;23;19948;-86
2023/03/04 00:20:01;;;;;;;;;;;;;;;;;;6145494;23;19924;-86
2023/03/04 00:22:33;;;;;;;;;;;;;;;;;;6164355;23;20393;-86
2023/03/04 00:25:09;;;;;;;;;;;;;;;;;;6122357;23;19916;-86
2023/03/04 00:28:07;;;;;;;;;;;;;;;;;;;;;
2023/03/04 00:31:03;;;;;;;;;;;;;;;;;;;;;
2023/03/04 00:33:43;;;;;;;;;;;;;;;;;;6143559;23;19947;-86
2023/03/04 00:36:20;;;;;;;;;;;;;;;;;;6124868;23;19916;-86
2023/03/04 00:51:30;;;;;;;;;;;;;;;;;;6120280;23;20319;-86
2023/03/04 00:54:13;;;;;;;;;;;;;;;;;;6245609;22;19919;-86
2023/03/04 01:03:33;;;;;;;;;;;;;;;;;;;;;
2023/03/04 01:06:11;;;;;;;;;;;;;;;;;;6241182;22;19927;-86
2023/03/04 01:18:05;;;;;;;;;;;;;;;;;;6081370;23;19918;-86
2023/03/04 01:20:44;;;;;;;;;;;;;;;;;;6024573;23;19922;-86
2023/03/04 01:23:28;;;;;;;;;;;;;;;;;;6017114;23;19921;-86
2023/03/04 01:26:19;;;;;;;;;;;;;;;;;;;;;
2023/03/04 01:38:20;;;;;;;;;;;;;;;;;;;;;
2023/03/04 01:41:14;;;;;;;;;;;;;;;;;;6051482;23;19925;-86
2023/03/04 01:47:51;;;;;;;;;;;;;;;;;;;;;
2023/03/04 01:50:25;;;;;;;;;;;;;;;;;;6124867;23;20059;-86
2023/03/04 01:52:51;;;;;;;;;;;;;;;;;;6231004;23;20237;-86
2023/03/04 01:55:17;;;;;;;;;;;;;;;;;;6232381;23;19916;-86
2023/03/04 01:57:43;;;;;;;;;;;;;;;;;;6206883;23;19974;-86
2023/03/04 02:00:09;;;;;;;;;;;;;;;;;;6234284;23;20240;-86
2023/03/04 02:02:35;;;;;;;;;;;;;;;;;;6201221;23;19924;-85
2023/03/04 02:05:03;;;;;;;;;;;;;;;;;;6228740;23;20018;-86
2023/03/04 02:07:31;;;;;;;;;;;;;;;;;;6204360;23;20018;-86
2023/03/04 02:09:57;;;;;;;;;;;;;;;;;;6242424;22;19919;-86
2023/03/04 02:12:26;;;;;;;;;;;;;;;;;;6215789;22;20421;-86
2023/03/04 02:14:52;;;;;;;;;;;;;;;;;;6216495;22;19919;-86
2023/03/04 02:17:18;;;;;;;;;;;;;;;;;;6243159;22;19926;-86
2023/03/04 02:19:47;;;;;;;;;;;;;;;;;;6216599;22;19919;-86
2023/03/04 02:22:18;;;;;;;;;;;;;;;;;;6241835;22;19950;-86
2023/03/04 02:24:44;;;;;;;;;;;;;;;;;;6216678;22;19926;-86
2023/03/04 02:27:10;;;;;;;;;;;;;;;;;;6216152;22;19994;-86
2023/03/04 02:29:39;;;;;;;;;;;;;;;;;;6216923;22;19984;-86
2023/03/04 02:32:26;;;;;;;;;;;;;;;;;;6242385;22;20411;-86
2023/03/04 02:34:54;;;;;;;;;;;;;;;;;;6242135;22;20274;-86
2023/03/04 02:37:23;;;;;;;;;;;;;;;;;;6214033;22;19998;-86
2023/03/04 02:39:56;;;;;;;;;;;;;;;;;;6217648;22;20231;-86
2023/03/04 02:42:22;;;;;;;;;;;;;;;;;;6241194;22;19930;-86
2023/03/04 02:44:49;;;;;;;;;;;;;;;;;;6214116;22;19919;-86
2023/03/04 02:47:16;;;;;;;;;;;;;;;;;;6243959;22;19919;-87
2023/03/04 02:49:42;;;;;;;;;;;;;;;;;;6245112;22;19965;-86
2023/03/04 02:52:08;;;;;;;;;;;;;;;;;;6216017;22;19981;-85
2023/03/04 02:54:34;;;;;;;;;;;;;;;;;;6216352;22;20406;-87
2023/03/04 02:57:00;;;;;;;;;;;;;;;;;;6216967;22;19954;-87
2023/03/04 02:59:26;;;;;;;;;;;;;;;;;;6215943;22;19919;-87
2023/03/04 03:01:55;;;;;;;;;;;;;;;;;;6269840;22;19915;-86
2023/03/04 03:04:21;;;;;;;;;;;;;;;;;;6243902;22;19965;-86
2023/03/04 03:06:47;;;;;;;;;;;;;;;;;;6243232;22;19923;-86
2023/03/04 03:09:13;;;;;;;;;;;;;;;;;;6219354;22;20282;-86
2023/03/04 03:11:39;;;;;;;;;;;;;;;;;;6217417;22;19919;-86
2023/03/04 03:14:05;;;;;;;;;;;;;;;;;;6214632;22;20419;-86
2023/03/04 03:16:31;;;;;;;;;;;;;;;;;;6240923;22;19995;-86
2023/03/04 03:18:57;;;;;;;;;;;;;;;;;;6266408;22;20685;-86
2023/03/04 03:21:23;;;;;;;;;;;;;;;;;;6265086;22;19974;-86
2023/03/04 03:23:49;;;;;;;;;;;;;;;;;;6269627;22;19955;-86
2023/03/04 03:26:15;;;;;;;;;;;;;;;;;;6214441;22;20279;-87
2023/03/04 03:28:41;;;;;;;;;;;;;;;;;;6268038;22;19919;-86
2023/03/04 03:31:10;;;;;;;;;;;;;;;;;;6269568;22;20022;-86
2023/03/04 03:33:36;;;;;;;;;;;;;;;;;;6238296;22;20339;-86
2023/03/04 03:36:04;;;;;;;;;;;;;;;;;;6267756;22;20057;-86
2023/03/04 03:38:30;;;;;;;;;;;;;;;;;;6265565;22;19919;-86
2023/03/04 03:40:56;;;;;;;;;;;;;;;;;;6240638;22;19926;-86
2023/03/04 03:43:22;;;;;;;;;;;;;;;;;;6266635;22;19968;-86
2023/03/04 03:45:50;;;;;;;;;;;;;;;;;;6213198;22;19923;-86
2023/03/04 03:48:16;;;;;;;;;;;;;;;;;;6211798;22;19919;-86
2023/03/04 03:50:42;;;;;;;;;;;;;;;;;;6240208;22;19996;-86
2023/03/04 03:53:08;;;;;;;;;;;;;;;;;;6212964;22;20287;-86
2023/03/04 03:55:34;;;;;;;;;;;;;;;;;;6240829;22;19919;-86
2023/03/04 04:01:01;;;;;;;;;;;;;;;;;;6240676;22;19930;-86
2023/03/04 04:03:38;;;;;;;;;;;;;;;;;;6210928;22;19973;-85
2023/03/04 04:06:30;;;;;;;;;;;;;;;;;;6219150;22;19923;-86
2023/03/04 04:12:22;;;;;;;;;;;;;;;;;;;;;
2023/03/04 04:14:51;;;;;;;;;;;;;;;;;;6238702;22;19923;-86
2023/03/04 04:17:28;;;;;;;;;;;;;;;;;;6237404;22;19923;-85
2023/03/04 04:29:45;;;;;;;;;;;;;;;;;;;;;
2023/03/04 04:35:30;;;;;;;;;;;;;;;;;;6036983;23;19959;-85
2023/03/04 04:49:46;;;;;;;;;;;;;;;;;;6197866;23;20486;-86
2023/03/04 04:52:32;;;;;;;;;;;;;;;;;;6144893;23;19920;-86
2023/03/04 04:58:30;;;;;;;;;;;;;;;;;;6086985;23;19936;-86
2023/03/04 05:01:07;;;;;;;;;;;;;;;;;;6040247;23;19924;-86
2023/03/04 05:04:01;;;;;;;;;;;;;;;;;;6065668;23;20005;-85
2023/03/04 05:06:43;;;;;;;;;;;;;;;;;;6063893;23;19940;-86
2023/03/04 05:09:32;;;;;;;;;;;;;;;;;;6041491;23;19988;-86
2023/03/04 05:12:34;;;;;;;;;;;;;;;;;;6092940;23;19959;-85
2023/03/04 05:18:04;;;;;;;;;;;;;;;;;;6108941;23;20224;-86
2023/03/04 05:26:42;;;;;;;;;;;;;;;;;;6216298;23;20040;-85
2023/03/04 05:29:11;;;;;;;;;;;;;;;;;;6207867;23;19935;-85
2023/03/04 05:31:37;;;;;;;;;;;;;;;;;;6156518;23;19920;-85
2023/03/04 05:34:05;;;;;;;;;;;;;;;;;;6154129;23;19939;-86
2023/03/04 05:36:31;;;;;;;;;;;;;;;;;;6155266;23;20725;-86
2023/03/04 05:39:00;;;;;;;;;;;;;;;;;;6180399;23;20011;-86
2023/03/04 05:41:26;;;;;;;;;;;;;;;;;;6155813;23;19919;-85
2023/03/04 05:43:57;;;;;;;;;;;;;;;;;;6180313;23;19939;-86
2023/03/04 05:46:24;;;;;;;;;;;;;;;;;;6194716;22;19921;-86
2023/03/04 05:48:52;;;;;;;;;;;;;;;;;;6217228;22;20232;-86
2023/03/04 05:51:18;;;;;;;;;;;;;;;;;;6217101;22;19923;-86
2023/03/04 05:53:44;;;;;;;;;;;;;;;;;;6213703;22;19919;-85
2023/03/04 05:56:13;;;;;;;;;;;;;;;;;;6217516;22;20294;-86
2023/03/04 05:58:39;;;;;;;;;;;;;;;;;;6240076;22;20294;-85
2023/03/04 06:01:05;;;;;;;;;;;;;;;;;;6215821;22;19919;-86
2023/03/04 06:03:31;;;;;;;;;;;;;;;;;;6215609;22;20348;-87
2023/03/04 06:05:57;;;;;;;;;;;;;;;;;;6216866;22;19920;-85
2023/03/04 06:08:25;;;;;;;;;;;;;;;;;;6216209;22;19930;-86
2023/03/04 06:10:51;;;;;;;;;;;;;;;;;;6215660;22;19926;-86
2023/03/04 06:13:23;;;;;;;;;;;;;;;;;;6214750;22;19922;-86
2023/03/04 06:15:51;;;;;;;;;;;;;;;;;;6217127;22;19926;-85
2023/03/04 06:18:27;;;;;;;;;;;;;;;;;;;;;
2023/03/04 06:21:28;;;;;;;;;;;;;;;;;;;;;
2023/03/04 06:24:16;;;;;;;;;;;;;;;;;;6267201;22;19923;-86
2023/03/04 06:26:56;;;;;;;;;;;;;;;;;;6238944;22;19919;-86
2023/03/04 06:30:05;;;;;;;;;;;;;;;;;;6212608;23;20337;-86
2023/03/04 06:33:00;;;;;;;;;;;;;;;;;;6202944;23;19920;-86
2023/03/04 06:36:02;;;;;;;;;;;;;;;;;;6187416;23;20264;-86
2023/03/04 06:38:44;;;;;;;;;;;;;;;;;;6180821;23;19920;-86
2023/03/04 06:41:33;;;;;;;;;;;;;;;;;;6179780;23;20214;-86
2023/03/04 06:44:42;;;;;;;;;;;;;;;;;;6148787;23;19928;-87
2023/03/04 06:50:14;;;;;;;;;;;;;;;;;;;;;
2023/03/04 06:59:10;;;;;;;;;;;;;;;;;;;;;
2023/03/04 07:05:23;;;;;;;;;;;;;;;;;;;;;
2023/03/04 07:08:25;;;;;;;;;;;;;;;;;;6034396;23;20080;-86
2023/03/04 07:11:28;;;;;;;;;;;;;;;;;;;;;
2023/03/04 07:14:30;;;;;;;;;;;;;;;;;;6246119;23;20422;-86
2023/03/04 07:20:48;;;;;;;;;;;;;;;;;;6116778;23;19924;-87
2023/03/04 07:54:07;;;;;;;;;;;;;;;;;;6230202;22;19927;-85
2023/03/04 07:56:34;;;;;;;;;;;;;;;;;;6219156;22;20342;-85
2023/03/04 07:59:00;;;;;;;;;;;;;;;;;;6220130;22;20319;-85
2023/03/04 08:01:39;;;;;;;;;;;;;;;;;;6221019;22;19925;-85
2023/03/04 08:04:05;;;;;;;;;;;;;;;;;;6218802;22;19924;-85
2023/03/04 08:06:36;;;;;;;;;;;;;;;;;;6244747;22;20404;-85
2023/03/04 08:09:05;;;;;;;;;;;;;;;;;;6242623;22;19961;-85
2023/03/04 08:11:33;;;;;;;;;;;;;;;;;;6240481;22;19923;-85
2023/03/04 08:13:59;;;;;;;;;;;;;;;;;;6210881;22;19950;-85
2023/03/04 08:16:25;;;;;;;;;;;;;;;;;;6237123;22;19919;-85
2023/03/04 08:18:54;;;;;;;;;;;;;;;;;;6240256;22;20221;-85
2023/03/04 08:21:20;;;;;;;;;;;;;;;;;;6215251;22;19919;-85
2023/03/04 08:23:46;;;;;;;;;;;;;;;;;;6215120;22;20217;-85
2023/03/04 08:26:15;;;;;;;;;;;;;;;;;;6239023;22;19958;-85
2023/03/04 08:28:41;;;;;;;;;;;;;;;;;;6213913;22;20244;-85
2023/03/04 08:31:09;;;;;;;;;;;;;;;;;;6213193;22;20303;-85
2023/03/04 08:33:35;;;;;;;;;;;;;;;;;;6212668;22;20442;-84
2023/03/04 08:36:01;;;;;;;;;;;;;;;;;;6218352;22;19915;-84
2023/03/04 08:38:27;;;;;;;;;;;;;;;;;;6215952;22;19919;-84
2023/03/04 08:40:53;;;;;;;;;;;;;;;;;;6215677;22;20368;-85
2023/03/04 08:43:21;;;;;;;;;;;;;;;;;;6216067;22;19985;-85
2023/03/04 08:45:47;;;;;;;;;;;;;;;;;;6215505;22;19926;-85
2023/03/04 08:48:13;;;;;;;;;;;;;;;;;;6214545;22;20025;-85
2023/03/04 08:50:39;;;;;;;;;;;;;;;;;;6213891;22;19965;-85
2023/03/04 08:53:05;;;;;;;;;;;;;;;;;;6240870;22;19938;-85
2023/03/04 08:55:31;;;;;;;;;;;;;;;;;;6237345;23;20294;-85
2023/03/04 08:57:57;;;;;;;;;;;;;;;;;;6211979;23;20492;-85
2023/03/04 09:00:23;;;;;;;;;;;;;;;;;;6213245;23;19986;-85
2023/03/04 09:02:49;;;;;;;;;;;;;;;;;;6237672;23;19967;-84
2023/03/04 09:05:23;;;;;;;;;;;;;;;;;;6239398;23;20231;-85
2023/03/04 09:07:53;;;;;;;;;;;;;;;;;;6213933;23;19915;-86
2023/03/04 09:10:19;;;;;;;;;;;;;;;;;;6214158;23;20335;-84
2023/03/04 09:12:45;;;;;;;;;;;;;;;;;;6236635;23;19972;-85
2023/03/04 09:15:11;;;;;;;;;;;;;;;;;;6214298;23;19924;-84
2023/03/04 09:17:37;;;;;;;;;;;;;;;;;;6240317;23;19920;-84
2023/03/04 09:20:07;;;;;;;;;;;;;;;;;;6209855;23;20019;-84
2023/03/04 09:22:33;;;;;;;;;;;;;;;;;;6210282;23;19923;-84
2023/03/04 09:24:59;;;;;;;;;;;;;;;;;;6209310;23;19987;-84
2023/03/04 09:27:25;;;;;;;;;;;;;;;;;;6209962;23;19955;-84
2023/03/04 09:29:53;;;;;;;;;;;;;;;;;;6204948;23;19968;-84
2023/03/04 09:32:19;;;;;;;;;;;;;;;;;;6232337;23;19923;-84
2023/03/04 09:34:51;;;;;;;;;;;;;;;;;;6231458;23;19920;-84
2023/03/04 09:37:17;;;;;;;;;;;;;;;;;;6236358;23;19976;-84
2023/03/04 09:39:43;;;;;;;;;;;;;;;;;;6234280;23;20388;-84
2023/03/04 09:42:09;;;;;;;;;;;;;;;;;;6234418;23;20363;-84
2023/03/04 09:44:35;;;;;;;;;;;;;;;;;;6232860;23;19959;-85
2023/03/04 09:47:01;;;;;;;;;;;;;;;;;;6236743;23;19927;-84
2023/03/04 09:49:27;;;;;;;;;;;;;;;;;;6208099;23;19915;-84
2023/03/04 09:51:53;;;;;;;;;;;;;;;;;;6236523;23;19915;-84
2023/03/04 09:54:19;;;;;;;;;;;;;;;;;;6235088;23;20051;-84
2023/03/04 09:56:45;;;;;;;;;;;;;;;;;;6207807;23;19920;-85
2023/03/04 09:59:11;;;;;;;;;;;;;;;;;;6208594;23;19920;-85
2023/03/04 10:01:37;;;;;;;;;;;;;;;;;;6207924;23;19919;-84
2023/03/04 10:04:04;;;;;;;;;;;;;;;;;;6235455;23;19923;-84
2023/03/04 10:06:32;;;;;;;;;;;;;;;;;;6235103;23;20498;-84
2023/03/04 10:08:58;;;;;;;;;;;;;;;;;;6235103;23;19924;-84
2023/03/04 10:11:24;;;;;;;;;;;;;;;;;;6210433;23;19920;-84
2023/03/04 10:13:50;;;;;;;;;;;;;;;;;;6236023;23;19928;-84
2023/03/04 10:16:16;;;;;;;;;;;;;;;;;;6233469;23;19964;-84
2023/03/04 10:18:42;;;;;;;;;;;;;;;;;;6210451;23;20316;-84
2023/03/04 10:24:26;;;;;;;;;;;;;;;;;;6229877;23;19923;-84
2023/03/04 10:27:17;;;;;;;;;;;;;;;;;;6235203;22;20328;-84
2023/03/04 10:30:01;;;;;;;;;;;;;;;;;;6125657;23;20304;-83
2023/03/04 10:32:45;;;;;;;;;;;;;;;;;;6118972;23;20333;-84
2023/03/04 10:35:27;;;;;;;;;;;;;;;;;;6192042;23;19926;-85
2023/03/04 10:38:31;;;;;;;;;;;;;;;;;;;;;
2023/03/04 10:40:56;;;;;;;;;;;;;;;;;;;;;
2023/03/04 10:44:38;;;;;;;;;;;;;;;;;;;;;
2023/03/04 10:46:29;;;;;;;;;;;;;;;;;;6223088;23;20356;-84
2023/03/04 10:48:57;;;;;;;;;;;;;;;;;;6239687;23;19923;-84
2023/03/04 10:51:34;;;;;;;;;;;;;;;;;;6240966;23;19920;-84
2023/03/04 10:54:12;;;;;;;;;;;;;;;;;;6259832;22;19923;-83
2023/03/04 10:56:49;;;;;;;;;;;;;;;;;;;;;
2023/03/04 11:02:30;;;;;;;;;;;;;;;;;;6120438;23;19960;-84
2023/03/04 11:07:57;;;;;;;;;;;;;;;;;;6117064;23;20552;-84
2023/03/04 11:10:29;;;;;;;;;;;;;;;;;;6138719;23;20686;-84
2023/03/04 11:12:58;;;;;;;;;;;;;;;;;;6123839;23;20249;-84
2023/03/04 11:15:26;;;;;;;;;;;;;;;;;;6120222;23;19939;-84
2023/03/04 11:18:10;;;;;;;;;;;;;;;;;;6122663;23;19921;-84
2023/03/04 11:20:54;;;;;;;;;;;;;;;;;;6116125;23;20488;-84
2023/03/04 11:23:29;;;;;;;;;;;;;;;;;;6118268;23;19924;-84
2023/03/04 11:26:12;;;;;;;;;;;;;;;;;;6112456;23;19952;-84
2023/03/04 11:28:57;;;;;;;;;;;;;;;;;;6140669;23;19928;-84
2023/03/04 11:31:35;;;;;;;;;;;;;;;;;;6166209;23;19995;-84
2023/03/04 11:34:03;;;;;;;;;;;;;;;;;;6176901;23;19920;-84
2023/03/04 11:36:57;;;;;;;;;;;;;;;;;;;;;
2023/03/04 11:48:48;;;;;;;;;;;;;;;;;;6173013;23;19923;-84
2023/03/04 11:51:23;;;;;;;;;;;;;;;;;;6178905;23;19920;-84
2023/03/04 11:53:57;;;;;;;;;;;;;;;;;;6167917;23;19928;-84
2023/03/04 11:56:23;;;;;;;;;;;;;;;;;;6187683;23;19998;-84
2023/03/04 11:58:49;;;;;;;;;;;;;;;;;;6212159;23;19942;-84
2023/03/04 12:01:15;;;;;;;;;;;;;;;;;;6211436;23;19990;-85
2023/03/04 12:03:41;;;;;;;;;;;;;;;;;;6237628;23;19985;-85
2023/03/04 12:06:07;;;;;;;;;;;;;;;;;;6209643;23;19920;-85
2023/03/04 12:08:33;;;;;;;;;;;;;;;;;;6233551;23;19919;-85
2023/03/04 12:11:00;;;;;;;;;;;;;;;;;;6210234;23;19919;-84
2023/03/04 12:16:22;;;;;;;;;;;;;;;;;;6245739;22;20266;-84
2023/03/04 12:19:07;;;;;;;;;;;;;;;;;;6198949;23;19931;-84
2023/03/04 13:20:57;;;;;;;;;;;;;;;;;;6236004;22;19928;-84
2023/03/04 13:26:23;;;;;;;;;;;;;;;;;;6233956;23;20001;-84
2023/03/04 13:29:06;;;;;;;;;;;;;;;;;;6216878;23;20401;-84
2023/03/04 13:31:32;;;;;;;;;;;;;;;;;;6216241;23;19937;-84
2023/03/04 13:37:07;;;;;;;;;;;;;;;;;;6243208;23;20220;-84
2023/03/04 13:42:46;;;;;;;;;;;;;;;;;;6202766;23;20221;-84
2023/03/04 13:45:14;;;;;;;;;;;;;;;;;;6191022;23;19919;-84
2023/03/04 13:47:44;;;;;;;;;;;;;;;;;;6148572;23;20324;-84
2023/03/04 13:53:28;;;;;;;;;;;;;;;;;;6062181;23;19928;-84
2023/03/04 13:56:05;;;;;;;;;;;;;;;;;;6062267;23;19969;-83
2023/03/04 13:58:53;;;;;;;;;;;;;;;;;;6054174;23;19944;-84
2023/03/04 14:01:19;;;;;;;;;;;;;;;;;;6038571;23;20359;-84
2023/03/04 14:03:47;;;;;;;;;;;;;;;;;;6038449;23;19933;-83
2023/03/04 14:06:13;;;;;;;;;;;;;;;;;;6038010;23;20246;-84
2023/03/04 14:08:41;;;;;;;;;;;;;;;;;;6035298;23;19921;-83
2023/03/04 14:11:07;;;;;;;;;;;;;;;;;;6061817;23;20000;-84
2023/03/04 14:13:33;;;;;;;;;;;;;;;;;;6037558;23;19952;-84
2023/03/04 14:15:59;;;;;;;;;;;;;;;;;;6037622;23;20410;-84
2023/03/04 14:18:26;;;;;;;;;;;;;;;;;;6069345;23;19917;-84
2023/03/04 14:20:57;;;;;;;;;;;;;;;;;;6129202;23;19925;-84
2023/03/04 14:23:26;;;;;;;;;;;;;;;;;;6160612;23;19920;-84
2023/03/04 14:25:54;;;;;;;;;;;;;;;;;;6186291;23;19916;-84
2023/03/04 14:28:20;;;;;;;;;;;;;;;;;;6185799;23;19939;-84
2023/03/04 14:30:46;;;;;;;;;;;;;;;;;;6186932;23;19919;-84
2023/03/04 14:33:12;;;;;;;;;;;;;;;;;;6159471;23;19942;-84
2023/03/04 14:35:38;;;;;;;;;;;;;;;;;;6184285;23;20340;-84
2023/03/04 14:38:04;;;;;;;;;;;;;;;;;;6161866;23;19966;-84
2023/03/04 14:40:33;;;;;;;;;;;;;;;;;;6161773;23;20325;-84
2023/03/04 14:43:00;;;;;;;;;;;;;;;;;;6160508;23;19924;-83
2023/03/04 14:45:26;;;;;;;;;;;;;;;;;;6160568;23;19927;-84
2023/03/04 14:47:52;;;;;;;;;;;;;;;;;;6161186;23;20038;-84
2023/03/04 14:50:18;;;;;;;;;;;;;;;;;;6161584;23;19920;-84
2023/03/04 14:52:44;;;;;;;;;;;;;;;;;;6160637;23;19958;-84
2023/03/04 14:55:10;;;;;;;;;;;;;;;;;;6186618;23;19919;-83
2023/03/04 14:57:36;;;;;;;;;;;;;;;;;;6184550;23;19947;-84
2023/03/04 15:00:02;;;;;;;;;;;;;;;;;;6186286;23;19922;-84
2023/03/04 15:02:30;;;;;;;;;;;;;;;;;;6161146;23;19923;-84
2023/03/04 15:04:56;;;;;;;;;;;;;;;;;;6184733;23;20284;-83
2023/03/04 15:07:24;;;;;;;;;;;;;;;;;;6186735;23;19916;-84
2023/03/04 15:09:50;;;;;;;;;;;;;;;;;;6162103;23;19923;-84
2023/03/04 15:12:16;;;;;;;;;;;;;;;;;;6162071;23;20343;-84
2023/03/04 15:14:43;;;;;;;;;;;;;;;;;;6205127;23;19994;-84
2023/03/04 15:17:09;;;;;;;;;;;;;;;;;;6193127;23;20240;-84
2023/03/04 15:19:35;;;;;;;;;;;;;;;;;;6186275;22;19928;-83
2023/03/04 15:22:01;;;;;;;;;;;;;;;;;;6189747;23;19926;-83
2023/03/04 15:24:29;;;;;;;;;;;;;;;;;;6162351;23;19942;-83
2023/03/04 15:26:55;;;;;;;;;;;;;;;;;;6186749;23;19919;-84
2023/03/04 15:29:21;;;;;;;;;;;;;;;;;;6185418;23;19978;-84
2023/03/04 15:31:47;;;;;;;;;;;;;;;;;;6184378;23;20325;-84
2023/03/04 15:34:13;;;;;;;;;;;;;;;;;;6183630;23;19923;-84
2023/03/04 15:36:39;;;;;;;;;;;;;;;;;;6160993;23;19916;-83
2023/03/04 15:39:07;;;;;;;;;;;;;;;;;;6186722;23;19920;-84
2023/03/04 15:41:34;;;;;;;;;;;;;;;;;;6185171;23;20336;-83
2023/03/04 15:44:00;;;;;;;;;;;;;;;;;;6160365;23;19920;-83
2023/03/04 15:46:26;;;;;;;;;;;;;;;;;;6212349;23;19967;-84
2023/03/04 15:48:54;;;;;;;;;;;;;;;;;;6160382;23;19919;-84
2023/03/04 15:51:21;;;;;;;;;;;;;;;;;;6160456;23;20251;-83
2023/03/04 15:53:49;;;;;;;;;;;;;;;;;;6157791;23;19982;-83
2023/03/04 15:56:18;;;;;;;;;;;;;;;;;;6161881;23;19946;-84
2023/03/04 15:58:44;;;;;;;;;;;;;;;;;;6160213;23;19919;-84
2023/03/04 16:01:10;;;;;;;;;;;;;;;;;;6186390;23;19920;-83
2023/03/04 16:03:36;;;;;;;;;;;;;;;;;;6184433;23;19930;-84
2023/03/04 16:06:02;;;;;;;;;;;;;;;;;;6187003;23;19956;-84
2023/03/04 16:08:28;;;;;;;;;;;;;;;;;;6184307;23;19920;-83
2023/03/04 16:10:54;;;;;;;;;;;;;;;;;;6213500;23;19954;-83
2023/03/04 16:13:20;;;;;;;;;;;;;;;;;;6184896;23;19920;-83
2023/03/04 16:15:49;;;;;;;;;;;;;;;;;;6161057;23;19970;-83
2023/03/04 16:18:15;;;;;;;;;;;;;;;;;;6184048;23;19920;-83
2023/03/04 16:20:43;;;;;;;;;;;;;;;;;;6196335;23;20362;-83
2023/03/04 16:23:09;;;;;;;;;;;;;;;;;;6185252;23;20287;-84
2023/03/04 16:25:35;;;;;;;;;;;;;;;;;;6202370;23;19966;-83
2023/03/04 18:52:53;;;;;;;;;;;;;;;;;;6181565;23;19942;-83
2023/03/04 18:58:31;;;;;;;;;;;;;;;;;;6073878;23;19921;-84
2023/03/04 19:01:25;;;;;;;;;;;;;;;;;;6124179;23;20106;-84
2023/03/04 19:04:04;;;;;;;;;;;;;;;;;;;;;
2023/03/04 19:06:35;;;;;;;;;;;;;;;;;;6036639;23;19926;-84
2023/03/04 19:09:07;;;;;;;;;;;;;;;;;;6059893;23;19964;-84
2023/03/04 19:15:04;;;;;;;;;;;;;;;;;;;;;
2023/03/04 19:18:09;;;;;;;;;;;;;;;;;;6069134;23;20343;-85
2023/03/04 19:26:51;;;;;;;;;;;;;;;;;;6033777;23;19961;-84
2023/03/04 19:29:18;;;;;;;;;;;;;;;;;;6058634;23;19918;-84
2023/03/04 19:31:47;;;;;;;;;;;;;;;;;;6067960;23;19948;-84
2023/03/04 19:34:13;;;;;;;;;;;;;;;;;;6107148;23;20321;-84
2023/03/04 19:36:39;;;;;;;;;;;;;;;;;;6177831;23;19928;-84
2023/03/04 19:39:05;;;;;;;;;;;;;;;;;;6177020;23;19920;-84
2023/03/04 19:41:31;;;;;;;;;;;;;;;;;;6177467;23;19920;-84
2023/03/04 19:43:57;;;;;;;;;;;;;;;;;;6176201;23;19927;-85
2023/03/04 19:46:23;;;;;;;;;;;;;;;;;;6156538;23;19921;-84
2023/03/04 19:48:55;;;;;;;;;;;;;;;;;;6170369;23;19923;-84
2023/03/04 19:51:21;;;;;;;;;;;;;;;;;;6186076;23;19920;-85
2023/03/04 19:53:47;;;;;;;;;;;;;;;;;;6182218;23;19927;-84
2023/03/04 19:56:16;;;;;;;;;;;;;;;;;;6187227;23;20253;-85
2023/03/04 19:58:45;;;;;;;;;;;;;;;;;;6187098;23;19919;-85
2023/03/04 20:01:11;;;;;;;;;;;;;;;;;;6183772;23;19985;-85
2023/03/04 20:03:37;;;;;;;;;;;;;;;;;;6197255;23;19903;-85
2023/03/04 20:06:06;;;;;;;;;;;;;;;;;;6234871;23;20259;-85
2023/03/04 20:08:35;;;;;;;;;;;;;;;;;;6205824;23;19973;-85
2023/03/04 20:11:01;;;;;;;;;;;;;;;;;;6183671;23;19987;-85
2023/03/04 20:13:27;;;;;;;;;;;;;;;;;;6179355;23;20394;-85
2023/03/04 20:15:53;;;;;;;;;;;;;;;;;;6181178;23;19920;-85
2023/03/04 20:21:27;;;;;;;;;;;;;;;;;;6125415;23;19917;-85
2023/03/04 20:27:07;;;;;;;;;;;;;;;;;;;;;
2023/03/04 20:33:00;;;;;;;;;;;;;;;;;;6152405;23;19916;-84
2023/03/04 20:36:27;;;;;;;;;;;;;;;;;;;;;
2023/03/04 20:39:14;;;;;;;;;;;;;;;;;;6062360;23;19976;-85
2023/03/04 20:41:43;;;;;;;;;;;;;;;;;;6084414;23;19921;-85
2023/03/04 20:53:53;;;;;;;;;;;;;;;;;;6087922;23;20181;-85
2023/03/04 21:02:50;;;;;;;;;;;;;;;;;;6140742;23;19921;-84
2023/03/04 21:05:16;;;;;;;;;;;;;;;;;;6120806;23;20387;-85
2023/03/04 21:07:42;;;;;;;;;;;;;;;;;;6119649;23;19940;-85
2023/03/04 21:10:10;;;;;;;;;;;;;;;;;;6120303;23;19925;-85
2023/03/04 21:12:39;;;;;;;;;;;;;;;;;;6142546;23;19955;-86
2023/03/04 21:15:08;;;;;;;;;;;;;;;;;;6144090;23;19924;-86
2023/03/04 21:17:34;;;;;;;;;;;;;;;;;;6118128;23;20368;-85
2023/03/04 21:20:00;;;;;;;;;;;;;;;;;;6142492;23;19920;-85
2023/03/04 21:22:26;;;;;;;;;;;;;;;;;;6175134;23;19916;-85
2023/03/04 21:24:52;;;;;;;;;;;;;;;;;;6150824;23;19931;-85
2023/03/04 21:27:19;;;;;;;;;;;;;;;;;;6148864;23;19924;-85
2023/03/04 21:29:45;;;;;;;;;;;;;;;;;;6155251;23;19920;-85
2023/03/04 21:32:11;;;;;;;;;;;;;;;;;;6179782;23;19919;-85
2023/03/04 21:34:37;;;;;;;;;;;;;;;;;;6177413;23;20257;-85
2023/03/04 21:37:20;;;;;;;;;;;;;;;;;;6180118;23;19987;-85
2023/03/04 21:39:52;;;;;;;;;;;;;;;;;;6179142;23;19959;-85
2023/03/04 21:42:20;;;;;;;;;;;;;;;;;;6176257;23;19926;-86
2023/03/04 21:44:49;;;;;;;;;;;;;;;;;;6180484;23;19991;-84
2023/03/04 21:47:31;;;;;;;;;;;;;;;;;;6182803;23;19919;-85
2023/03/04 21:49:59;;;;;;;;;;;;;;;;;;6177022;23;20316;-85
2023/03/04 22:00:29;;;;;;;;;;;;;;;;;;6242647;22;20874;-85
2023/03/04 22:03:11;;;;;;;;;;;;;;;;;;6212160;23;19927;-84
2023/03/04 22:06:07;;;;;;;;;;;;;;;;;;6134831;23;20409;-85
2023/03/04 22:08:43;;;;;;;;;;;;;;;;;;6063973;23;20009;-85
2023/03/04 22:11:24;;;;;;;;;;;;;;;;;;6088416;23;20281;-85
2023/03/04 22:14:05;;;;;;;;;;;;;;;;;;6097969;23;19928;-85
2023/03/04 22:16:40;;;;;;;;;;;;;;;;;;6028081;23;20411;-85
2023/03/04 22:19:17;;;;;;;;;;;;;;;;;;6004044;23;19974;-85
2023/03/04 22:25:20;;;;;;;;;;;;;;;;;;5926176;24;19927;-85
2023/03/04 22:28:23;;;;;;;;;;;;;;;;;;5895300;24;19923;-85
2023/03/04 22:34:24;;;;;;;;;;;;;;;;;;;;;
2023/03/04 22:37:08;;;;;;;;;;;;;;;;;;6027251;23;20312;-85
2023/03/04 22:43:07;;;;;;;;;;;;;;;;;;;;;
2023/03/04 22:45:53;;;;;;;;;;;;;;;;;;6028690;23;20515;-85
2023/03/04 22:54:31;;;;;;;;;;;;;;;;;;6120166;23;19928;-85
2023/03/04 23:06:07;;;;;;;;;;;;;;;;;;6169392;23;19925;-85
2023/03/04 23:15:17;;;;;;;;;;;;;;;;;;;;;
2023/03/04 23:24:10;;;;;;;;;;;;;;;;;;6110943;23;19925;-85
2023/03/04 23:26:42;;;;;;;;;;;;;;;;;;6093683;23;19976;-86
2023/03/04 23:29:08;;;;;;;;;;;;;;;;;;6118269;23;20348;-85
2023/03/04 23:31:36;;;;;;;;;;;;;;;;;;6070975;23;19928;-85
2023/03/04 23:34:10;;;;;;;;;;;;;;;;;;6066771;23;19936;-85
2023/03/04 23:36:39;;;;;;;;;;;;;;;;;;6088442;23;19920;-85
2023/03/04 23:39:22;;;;;;;;;;;;;;;;;;6151667;23;19982;-85
2023/03/04 23:41:48;;;;;;;;;;;;;;;;;;6151684;23;19920;-85
2023/03/04 23:44:17;;;;;;;;;;;;;;;;;;6123539;23;19982;-85
2023/03/04 23:46:43;;;;;;;;;;;;;;;;;;6224034;22;20328;-85
2023/03/04 23:49:09;;;;;;;;;;;;;;;;;;6218663;22;19929;-85
2023/03/04 23:51:35;;;;;;;;;;;;;;;;;;6243694;22;20509;-85
2023/03/04 23:54:04;;;;;;;;;;;;;;;;;;6218728;22;20351;-85
2023/03/04 23:56:33;;;;;;;;;;;;;;;;;;6242761;22;19965;-85
2023/03/04 23:58:59;;;;;;;;;;;;;;;;;;6215110;22;19926;-85
